Time,TemperatureF,DewpointF,PressureIn,WindDirection,WindDirectionDegrees,WindSpeedMPH,WindSpeedGustMPH,Humidity,HourlyPrecipIn,Conditions,Clouds,dailyrainin,SoftwareType,DateUTC
2013-08-19 00:12:00,65.0,61.0,30.09,NNE,27,0.0,0.0,87,0.00,,,0.00,,2013-08-19 04:12:00,
2013-08-19 00:23:00,65.0,61.0,30.09,NNE,27,0.0,0.0,87,0.00,,,0.00,,2013-08-19 04:23:00,
2013-08-19 00:53:00,64.0,61.0,30.09,NNE,27,0.0,0.0,89,0.00,,,0.00,,2013-08-19 04:53:00,
2013-08-19 01:11:00,63.0,60.0,30.09,NNE,27,0.0,0.0,89,0.00,,,0.00,,2013-08-19 05:11:00,
2013-08-19 01:22:00,63.0,60.0,30.09,NNE,27,0.0,0.0,89,0.00,,,0.00,,2013-08-19 05:22:00,
2013-08-19 01:52:00,62.0,59.0,30.09,NNE,27,0.0,0.0,91,0.00,,,0.00,,2013-08-19 05:52:00,
2013-08-19 02:11:00,62.0,60.0,30.09,NNE,27,0.0,0.0,92,0.00,,,0.00,,2013-08-19 06:11:00,
2013-08-19 02:21:00,62.0,60.0,30.09,NNE,27,0.0,0.0,92,0.00,,,0.00,,2013-08-19 06:21:00,
2013-08-19 02:42:00,62.0,60.0,30.09,NNE,27,0.0,0.0,92,0.00,,,0.00,,2013-08-19 06:42:00,
2013-08-19 02:52:00,62.0,60.0,30.09,NNE,27,0.0,0.0,92,0.00,,,0.00,,2013-08-19 06:52:00,
2013-08-19 03:12:00,60.0,58.0,30.08,NNE,27,0.0,0.0,92,0.00,,,0.00,,2013-08-19 07:12:00,
2013-08-19 03:21:00,60.0,58.0,30.08,NNE,27,0.0,0.0,92,0.00,,,0.00,,2013-08-19 07:21:00,
2013-08-19 03:52:00,60.0,58.0,30.08,NNE,27,0.0,0.0,93,0.00,,,0.00,,2013-08-19 07:52:00,
2013-08-19 04:11:00,59.0,57.0,30.08,NNE,27,0.0,0.0,93,0.00,,,0.00,,2013-08-19 08:11:00,
2013-08-19 04:21:00,59.0,57.0,30.08,NNE,27,0.0,0.0,93,0.00,,,0.00,,2013-08-19 08:21:00,
2013-08-19 04:52:00,59.0,58.0,30.08,NNE,26,0.0,0.0,95,0.00,,,0.00,,2013-08-19 08:52:00,
2013-08-19 05:11:00,59.0,57.0,30.08,NNE,27,0.0,0.0,93,0.00,,,0.00,,2013-08-19 09:11:00,
2013-08-19 05:22:00,58.0,56.0,30.08,NNE,27,0.0,0.0,93,0.00,,,0.00,,2013-08-19 09:22:00,
2013-08-19 05:53:00,58.0,56.0,30.09,NNE,27,0.0,0.0,94,0.00,,,0.00,,2013-08-19 09:53:00,
2013-08-19 06:23:00,58.0,57.0,30.09,NNE,27,0.0,0.0,95,0.00,,,0.00,,2013-08-19 10:23:00,
2013-08-19 06:52:00,59.0,58.0,30.09,NNE,27,0.0,0.0,95,0.00,,,0.00,,2013-08-19 10:52:00,
2013-08-19 07:12:00,58.0,57.0,30.10,NNE,27,0.0,0.0,95,0.00,,,0.00,,2013-08-19 11:12:00,
2013-08-19 07:22:00,58.0,57.0,30.10,NNE,27,0.0,0.0,95,0.00,,,0.00,,2013-08-19 11:22:00,
2013-08-19 07:33:00,58.0,57.0,30.10,NNE,27,0.0,0.0,95,0.00,,,0.00,,2013-08-19 11:33:00,
2013-08-19 07:52:00,58.0,57.0,30.10,NNE,25,0.0,0.0,95,0.00,,,0.00,,2013-08-19 11:52:00,
2013-08-19 08:11:00,58.0,57.0,30.11,NNE,27,0.0,0.0,96,0.00,,,0.00,,2013-08-19 12:11:00,
2013-08-19 08:21:00,58.0,57.0,30.11,NNE,27,0.0,0.0,96,0.00,,,0.00,,2013-08-19 12:21:00,
2013-08-19 08:42:00,59.0,58.0,30.11,NNE,27,0.0,0.0,96,0.00,,,0.00,,2013-08-19 12:42:00,
2013-08-19 08:52:00,59.0,58.0,30.11,NNE,27,0.0,0.0,96,0.00,,,0.00,,2013-08-19 12:52:00,
2013-08-19 09:22:00,61.0,60.0,30.11,NNE,27,0.0,0.0,97,0.00,,,0.00,,2013-08-19 13:22:00,
2013-08-19 09:42:00,62.0,61.0,30.11,NNE,27,0.0,0.0,98,0.00,,,0.00,,2013-08-19 13:42:00,
2013-08-19 09:52:00,63.0,62.0,30.11,NNE,27,0.0,0.0,98,0.00,,,0.00,,2013-08-19 13:52:00,
2013-08-19 10:21:00,66.0,65.0,30.11,NNE,27,0.0,0.0,98,0.00,,,0.00,,2013-08-19 14:21:00,
2013-08-19 10:32:00,66.0,65.0,30.11,NNE,27,0.0,0.0,98,0.00,,,0.00,,2013-08-19 14:32:00,
2013-08-19 10:52:00,68.0,67.0,30.11,SSE,168,0.0,0.0,95,0.00,,,0.00,,2013-08-19 14:52:00,
2013-08-19 11:11:00,69.0,67.0,30.12,SSW,199,0.0,0.0,94,0.00,,,0.00,,2013-08-19 15:11:00,
2013-08-19 11:22:00,71.0,67.0,30.12,SSW,199,0.0,0.0,88,0.00,,,0.00,,2013-08-19 15:22:00,
2013-08-19 11:54:00,73.0,66.0,30.11,NNW,347,0.0,0.0,79,0.00,,,0.00,,2013-08-19 15:54:00,
2013-08-19 12:13:00,77.0,66.0,30.11,North,4,0.0,0.0,68,0.00,,,0.00,,2013-08-19 16:13:00,
2013-08-19 12:23:00,78.0,63.0,30.11,NNE,27,0.0,0.0,61,0.00,,,0.00,,2013-08-19 16:23:00,
2013-08-19 13:12:00,82.0,66.0,30.10,South,181,0.0,0.0,58,0.00,,,0.00,,2013-08-19 17:12:00,
2013-08-19 13:30:00,82.0,-99.9,30.10,South,181,0.0,0.0,58,0.00,,,0.00,,2013-08-19 17:30:00,
2013-08-19 13:57:00,84.0,68.0,30.09,NE,36,0.0,0.0,59,0.00,,,0.00,,2013-08-19 17:57:00,
2013-08-19 14:19:00,84.0,67.0,30.08,North,350,0.0,0.0,56,0.00,,,0.00,,2013-08-19 18:19:00,
2013-08-19 14:28:00,85.0,67.0,30.08,SE,138,0.0,0.0,55,0.00,,,0.00,,2013-08-19 18:28:00,
2013-08-19 14:50:00,-999.0,-99.9,30.07,NNE,33,0.0,0.0,49,0.00,,,0.00,,2013-08-19 18:50:00,
2013-08-19 15:00:00,-999.0,-99.9,30.07,NNE,27,0.0,0.0,53,0.00,,,0.00,,2013-08-19 19:00:00,
2013-08-19 15:16:00,84.0,66.0,30.07,NE,34,0.0,0.0,54,0.00,,,0.00,,2013-08-19 19:16:00,
2013-08-19 15:30:00,-999.0,-99.9,30.07,NW,312,0.0,0.0,52,0.00,,,0.00,,2013-08-19 19:30:00,
2013-08-19 15:50:00,88.0,65.0,30.06,SW,220,0.0,0.0,47,0.00,,,0.00,,2013-08-19 19:50:00,
2013-08-19 15:59:00,89.0,67.0,30.06,SW,214,0.0,0.0,49,0.00,,,0.00,,2013-08-19 19:59:00,
2013-08-19 16:20:00,89.0,66.0,30.06,South,177,0.0,0.0,47,0.00,,,0.00,,2013-08-19 20:20:00,
2013-08-19 16:30:00,89.0,66.0,30.06,South,177,0.0,0.0,47,0.00,,,0.00,,2013-08-19 20:30:00,
2013-08-19 16:40:00,89.0,66.0,30.06,South,177,0.0,0.0,47,0.00,,,0.00,,2013-08-19 20:40:00,
2013-08-19 17:00:00,-999.0,-99.9,30.05,SSE,156,0.0,0.0,-999,-99.99,,,-99.99,,2013-08-19 21:00:00,
2013-08-19 17:16:00,89.0,67.0,30.05,NW,321,0.0,0.0,48,0.00,,,0.00,,2013-08-19 21:16:00,
2013-08-19 17:25:00,87.0,66.0,30.04,NNE,33,0.0,0.0,50,0.00,,,0.00,,2013-08-19 21:25:00,
2013-08-19 17:54:00,86.0,67.0,30.03,NE,39,0.0,0.0,53,0.00,,,0.00,,2013-08-19 21:54:00,
2013-08-19 18:06:00,86.0,67.0,30.03,NE,39,0.0,0.0,53,0.00,,,0.00,,2013-08-19 22:06:00,
2013-08-19 18:25:00,86.0,67.0,30.03,NE,39,0.0,0.0,53,0.00,,,0.00,,2013-08-19 22:25:00,
2013-08-19 18:55:00,83.0,66.0,30.03,NNE,21,0.0,0.0,57,0.00,,,0.00,,2013-08-19 22:55:00,
2013-08-19 19:15:00,82.0,65.0,30.03,NNE,31,0.0,0.0,57,0.00,,,0.00,,2013-08-19 23:15:00,
2013-08-19 19:25:00,82.0,66.0,30.03,NE,36,0.0,0.0,58,0.00,,,0.00,,2013-08-19 23:25:00,
2013-08-19 19:48:00,81.0,66.0,30.03,NE,37,0.0,0.0,60,0.00,,,0.00,,2013-08-19 23:48:00,
2013-08-19 19:55:00,81.0,66.0,30.03,NE,37,0.0,0.0,60,0.00,,,0.00,,2013-08-19 23:55:00,
2013-08-19 20:24:00,80.0,68.0,30.02,NE,42,0.0,0.0,66,0.00,,,0.00,,2013-08-20 00:24:00,
2013-08-19 20:42:00,77.0,68.0,30.03,NE,43,0.0,0.0,73,0.00,,,0.00,,2013-08-20 00:42:00,
2013-08-19 20:52:00,76.0,67.0,30.03,NE,43,0.0,0.0,75,0.00,,,0.00,,2013-08-20 00:52:00,
2013-08-19 21:11:00,75.0,67.0,30.03,NE,42,0.0,0.0,76,0.00,,,0.00,,2013-08-20 01:11:00,
2013-08-19 21:22:00,74.0,66.0,30.03,NE,43,0.0,0.0,77,0.00,,,0.00,,2013-08-20 01:22:00,
2013-08-19 21:32:00,74.0,66.0,30.03,NE,43,0.0,0.0,77,0.00,,,0.00,,2013-08-20 01:32:00,
2013-08-19 21:42:00,74.0,66.0,30.03,NE,43,0.0,0.0,77,0.00,,,0.00,,2013-08-20 01:42:00,
2013-08-19 21:52:00,72.0,65.0,30.04,NE,43,0.0,0.0,79,0.00,,,0.00,,2013-08-20 01:52:00,
2013-08-19 22:02:00,72.0,65.0,30.04,NE,43,0.0,0.0,79,0.00,,,0.00,,2013-08-20 02:02:00,
2013-08-19 22:11:00,72.0,65.0,30.04,NE,43,0.0,0.0,79,0.00,,,0.00,,2013-08-20 02:11:00,
2013-08-19 22:21:00,71.0,65.0,30.05,NE,42,0.0,0.0,82,0.00,,,0.00,,2013-08-20 02:21:00,
2013-08-19 22:52:00,69.0,64.0,30.05,NE,42,0.0,0.0,84,0.00,,,0.00,,2013-08-20 02:52:00,
2013-08-19 23:11:00,69.0,64.0,30.06,NE,43,0.0,0.0,85,0.00,,,0.00,,2013-08-20 03:11:00,
2013-08-19 23:22:00,69.0,64.0,30.06,NE,43,0.0,0.0,85,0.00,,,0.00,,2013-08-20 03:22:00,
2013-08-19 23:43:00,67.0,63.0,30.06,NE,43,0.0,0.0,87,0.00,,,0.00,,2013-08-20 03:43:00,
2013-08-19 23:54:00,67.0,63.0,30.06,NE,43,0.0,0.0,87,0.00,,,0.00,,2013-08-20 03:54:00,